Time;durP1;ratioP1;P1;durP2;ratioP2;P2;SDS_P1;SDS_P2;PMS_P1;PMS_P2;Temp;Humidity;BMP_temperature;BMP_pressure;BME280_temperature;BME280_humidity;BME280_pressure;Samples;Min_cycle;Max_cycle;Signal;HPM_P1;HPM_P2
2023/10/25 00:01:26;;;;;;;17.70;16.20;;;;;;;;;;5055337;28;20080;-68
2023/10/25 00:03:52;;;;;;;19.00;17.35;;;;;;;;;;5049302;28;20170;-68
2023/10/25 00:06:17;;;;;;;20.20;18.30;;;;;;;;;;5021340;28;20064;-68
2023/10/25 00:08:43;;;;;;;19.30;17.67;;;;;;;;;;5047102;28;20028;-68
2023/10/25 00:11:09;;;;;;;19.88;17.98;;;;;;;;;;5050900;28;20033;-68
2023/10/25 00:13:35;;;;;;;18.83;17.17;;;;;;;;;;5049804;28;20115;-68
2023/10/25 00:16:02;;;;;;;20.35;18.50;;;;;;;;;;5050540;28;20454;-68
2023/10/25 00:18:28;;;;;;;20.65;18.50;;;;;;;;;;5047007;28;20052;-68
2023/10/25 00:20:54;;;;;;;21.98;19.90;;;;;;;;;;5048421;28;20036;-68
2023/10/25 00:23:20;;;;;;;22.02;19.98;;;;;;;;;;5047642;28;20521;-68
2023/10/25 00:25:50;;;;;;;20.45;18.60;;;;;;;;;;5052859;28;20123;-67
2023/10/25 00:28:16;;;;;;;61.35;20.67;;;;;;;;;;5052151;28;20032;-68
2023/10/25 00:30:42;;;;;;;23.40;19.17;;;;;;;;;;5028805;28;20071;-68
2023/10/25 00:33:07;;;;;;;121.85;21.08;;;;;;;;;;5034185;28;20087;-68
2023/10/25 00:35:33;;;;;;;54.35;20.05;;;;;;;;;;5033153;28;20079;-68
2023/10/25 00:37:59;;;;;;;321.88;26.70;;;;;;;;;;5048365;28;20123;-67
2023/10/25 00:40:25;;;;;;;23.40;19.42;;;;;;;;;;5036273;28;20108;-68
2023/10/25 00:42:50;;;;;;;19.25;17.35;;;;;;;;;;5050452;28;20407;-68
2023/10/25 00:45:16;;;;;;;20.30;18.50;;;;;;;;;;5037321;28;20717;-67
2023/10/25 00:47:43;;;;;;;20.25;17.95;;;;;;;;;;5031218;28;20485;-68
2023/10/25 00:50:09;;;;;;;21.63;19.38;;;;;;;;;;5044922;28;20089;-67
2023/10/25 00:52:38;;;;;;;22.92;20.85;;;;;;;;;;5030502;28;20087;-67
2023/10/25 00:55:04;;;;;;;22.08;19.98;;;;;;;;;;5035659;28;20035;-68
2023/10/25 00:57:32;;;;;;;21.17;19.27;;;;;;;;;;5036107;28;20044;-68
2023/10/25 01:00:00;;;;;;;21.23;19.15;;;;;;;;;;5049133;28;20127;-67
2023/10/25 01:02:26;;;;;;;20.35;18.55;;;;;;;;;;5041075;28;20036;-67
2023/10/25 01:04:51;;;;;;;20.83;18.95;;;;;;;;;;5044877;28;20031;-68
2023/10/25 01:07:17;;;;;;;19.92;18.08;;;;;;;;;;5051669;28;20041;-67
2023/10/25 01:09:42;;;;;;;20.58;18.70;;;;;;;;;;5060725;28;20039;-68
2023/10/25 01:12:09;;;;;;;21.48;19.38;;;;;;;;;;5049785;28;20037;-68
2023/10/25 01:14:34;;;;;;;20.17;18.40;;;;;;;;;;5031988;28;20067;-68
2023/10/25 01:17:00;;;;;;;20.63;18.77;;;;;;;;;;5045100;28;20037;-68
2023/10/25 01:19:26;;;;;;;21.00;19.00;;;;;;;;;;5046501;28;20409;-68
2023/10/25 01:21:52;;;;;;;20.90;19.10;;;;;;;;;;5044093;28;20028;-67
2023/10/25 01:24:18;;;;;;;21.17;19.15;;;;;;;;;;5035376;28;20036;-68
2023/10/25 01:26:44;;;;;;;19.35;17.63;;;;;;;;;;5015268;28;20051;-67
2023/10/25 01:29:09;;;;;;;20.23;18.40;;;;;;;;;;5038955;28;20087;-68
2023/10/25 01:31:35;;;;;;;20.65;18.92;;;;;;;;;;5042487;28;20082;-68
2023/10/25 01:34:00;;;;;;;20.60;18.70;;;;;;;;;;5025519;28;20696;-68
2023/10/25 01:36:26;;;;;;;21.05;18.98;;;;;;;;;;5038366;28;20028;-68
2023/10/25 01:38:51;;;;;;;20.40;18.38;;;;;;;;;;5050387;28;20040;-68
2023/10/25 01:41:17;;;;;;;20.55;18.65;;;;;;;;;;5052446;28;20051;-68
2023/10/25 01:43:43;;;;;;;20.45;18.58;;;;;;;;;;5042304;28;20036;-69
2023/10/25 01:46:09;;;;;;;20.88;19.08;;;;;;;;;;5040367;28;20108;-68
2023/10/25 01:48:37;;;;;;;21.08;19.17;;;;;;;;;;5050312;28;20040;-68
2023/10/25 01:51:07;;;;;;;21.02;18.88;;;;;;;;;;5046010;28;20040;-68
2023/10/25 01:53:33;;;;;;;;;;;;;;;;;;5029549;28;20393;-68
2023/10/25 01:55:58;;;;;;;19.65;18.05;;;;;;;;;;5037916;28;19916;-68
2023/10/25 01:58:25;;;;;;;19.50;17.90;;;;;;;;;;5038566;28;20029;-69
2023/10/25 02:00:51;;;;;;;19.88;18.08;;;;;;;;;;5046223;28;20036;-69
2023/10/25 02:03:17;;;;;;;20.98;19.17;;;;;;;;;;5039350;28;20040;-68
2023/10/25 02:05:43;;;;;;;19.50;17.90;;;;;;;;;;5052103;28;20401;-68
2023/10/25 02:08:08;;;;;;;20.02;18.40;;;;;;;;;;5026300;28;20029;-69
2023/10/25 02:10:34;;;;;;;19.98;18.20;;;;;;;;;;5036196;28;20498;-68
2023/10/25 02:13:00;;;;;;;20.67;18.80;;;;;;;;;;5040401;28;20071;-68
2023/10/25 02:15:27;;;;;;;21.02;19.13;;;;;;;;;;5042861;28;20028;-68
2023/10/25 02:17:53;;;;;;;21.15;19.13;;;;;;;;;;5033065;28;20037;-69
2023/10/25 02:20:18;;;;;;;20.73;18.90;;;;;;;;;;5038854;28;20028;-69
2023/10/25 02:22:44;;;;;;;22.65;20.52;;;;;;;;;;5040820;28;20029;-69
2023/10/25 02:25:09;;;;;;;22.17;20.05;;;;;;;;;;5045574;28;20040;-68
2023/10/25 02:27:35;;;;;;;21.55;19.52;;;;;;;;;;5048753;28;20033;-68
2023/10/25 02:30:01;;;;;;;22.38;20.02;;;;;;;;;;5036087;28;20124;-68
2023/10/25 02:32:28;;;;;;;377.50;27.27;;;;;;;;;;5048533;28;20067;-68
2023/10/25 02:34:53;;;;;;;590.10;33.72;;;;;;;;;;5045114;28;20033;-68
2023/10/25 02:37:19;;;;;;;524.45;30.63;;;;;;;;;;5044156;28;20029;-68
2023/10/25 02:39:45;;;;;;;326.15;22.17;;;;;;;;;;5044867;28;20103;-68
2023/10/25 02:42:12;;;;;;;465.58;28.70;;;;;;;;;;5031589;28;20040;-68
2023/10/25 02:44:38;;;;;;;314.35;24.10;;;;;;;;;;5048690;28;20437;-68
2023/10/25 02:47:05;;;;;;;289.85;23.92;;;;;;;;;;5037249;28;20047;-68
2023/10/25 02:49:33;;;;;;;246.20;22.17;;;;;;;;;;5046238;28;20032;-68
2023/10/25 02:51:58;;;;;;;181.52;22.20;;;;;;;;;;5040865;28;20037;-68
2023/10/25 02:54:24;;;;;;;156.68;21.75;;;;;;;;;;5036833;28;20067;-68
2023/10/25 02:56:49;;;;;;;180.80;20.75;;;;;;;;;;5050944;28;20112;-68
2023/10/25 02:59:15;;;;;;;207.20;20.60;;;;;;;;;;5042296;28;20037;-68
2023/10/25 03:01:41;;;;;;;297.60;26.70;;;;;;;;;;5046675;28;20033;-68
2023/10/25 03:04:06;;;;;;;244.73;19.73;;;;;;;;;;5042320;28;20033;-68
2023/10/25 03:06:32;;;;;;;379.50;26.50;;;;;;;;;;5050896;28;20025;-69
2023/10/25 03:08:58;;;;;;;460.73;29.05;;;;;;;;;;5028468;28;20036;-68
2023/10/25 03:11:23;;;;;;;389.67;25.02;;;;;;;;;;5043197;28;20062;-68
2023/10/25 03:13:49;;;;;;;417.33;26.02;;;;;;;;;;5045577;28;20028;-68
2023/10/25 03:16:15;;;;;;;298.95;22.88;;;;;;;;;;5044693;28;20114;-68
2023/10/25 03:18:41;;;;;;;248.25;21.88;;;;;;;;;;5038918;28;20029;-68
2023/10/25 03:21:06;;;;;;;446.60;28.23;;;;;;;;;;5045594;28;20029;-68
2023/10/25 03:23:32;;;;;;;255.77;21.85;;;;;;;;;;5040847;28;20086;-68
2023/10/25 03:26:06;;;;;;;389.63;26.13;;;;;;;;;;5049242;28;20539;-68
2023/10/25 03:28:31;;;;;;;320.48;25.73;;;;;;;;;;5021405;28;20046;-68
2023/10/25 03:30:57;;;;;;;203.88;21.83;;;;;;;;;;5045687;28;20051;-68
2023/10/25 03:33:23;;;;;;;107.75;19.67;;;;;;;;;;5041059;28;20036;-68
2023/10/25 03:35:53;;;;;;;78.45;17.90;;;;;;;;;;5028944;28;20494;-68
2023/10/25 03:38:19;;;;;;;156.88;20.75;;;;;;;;;;5049138;28;20087;-68
2023/10/25 03:40:46;;;;;;;320.33;26.20;;;;;;;;;;5029860;28;20029;-68
2023/10/25 03:43:11;;;;;;;452.95;28.02;;;;;;;;;;5033233;28;20094;-68
2023/10/25 03:45:37;;;;;;;532.90;30.98;;;;;;;;;;5050491;28;20033;-68
2023/10/25 03:48:03;;;;;;;497.35;33.80;;;;;;;;;;5037161;28;20033;-68
2023/10/25 03:50:29;;;;;;;380.52;25.20;;;;;;;;;;5048059;28;20048;-68
2023/10/25 03:52:55;;;;;;;161.23;21.50;;;;;;;;;;5044275;28;20124;-68
2023/10/25 03:55:21;;;;;;;58.00;16.35;;;;;;;;;;5045402;28;20060;-68
2023/10/25 03:57:47;;;;;;;121.60;17.17;;;;;;;;;;5045047;28;20041;-68
2023/10/25 04:00:13;;;;;;;74.28;17.08;;;;;;;;;;5037831;28;20040;-68
2023/10/25 04:02:40;;;;;;;102.75;16.75;;;;;;;;;;5051102;28;20116;-67
2023/10/25 04:05:06;;;;;;;115.80;18.23;;;;;;;;;;5049358;28;20387;-68
2023/10/25 04:07:32;;;;;;;126.68;17.63;;;;;;;;;;5045030;28;20040;-67
2023/10/25 04:09:57;;;;;;;60.40;16.77;;;;;;;;;;5049957;28;20134;-68
2023/10/25 04:12:23;;;;;;;86.13;16.27;;;;;;;;;;5050531;28;20507;-67
2023/10/25 04:14:48;;;;;;;57.55;15.85;;;;;;;;;;5051754;28;20741;-67
2023/10/25 04:17:14;;;;;;;42.17;16.08;;;;;;;;;;5050189;28;20041;-67
2023/10/25 04:19:41;;;;;;;73.55;16.67;;;;;;;;;;5051101;28;20052;-67
2023/10/25 04:22:06;;;;;;;42.10;16.83;;;;;;;;;;5053217;28;20540;-68
2023/10/25 04:24:33;;;;;;;45.25;15.77;;;;;;;;;;5048805;28;20041;-69
2023/10/25 04:27:01;;;;;;;17.95;15.55;;;;;;;;;;5051386;28;20033;-67
2023/10/25 04:29:27;;;;;;;16.90;15.50;;;;;;;;;;5061114;28;20043;-69
2023/10/25 04:31:53;;;;;;;16.25;14.82;;;;;;;;;;5062898;28;20051;-69
2023/10/25 04:34:18;;;;;;;17.08;15.63;;;;;;;;;;5067986;28;20033;-69
2023/10/25 04:36:44;;;;;;;18.42;16.73;;;;;;;;;;5053740;28;20043;-68
2023/10/25 04:39:09;;;;;;;16.52;15.13;;;;;;;;;;5053465;28;20072;-68
2023/10/25 04:41:35;;;;;;;18.23;16.77;;;;;;;;;;5049471;28;20032;-68
2023/10/25 04:44:01;;;;;;;54.78;16.60;;;;;;;;;;5047866;28;20041;-68
2023/10/25 04:46:27;;;;;;;41.00;14.90;;;;;;;;;;5050495;28;20062;-68
2023/10/25 04:48:52;;;;;;;46.65;16.52;;;;;;;;;;5057470;28;20029;-69
2023/10/25 04:51:18;;;;;;;85.22;17.25;;;;;;;;;;5050038;28;20059;-69
2023/10/25 04:53:45;;;;;;;184.77;20.05;;;;;;;;;;5053083;28;20036;-69
2023/10/25 04:56:11;;;;;;;216.68;21.20;;;;;;;;;;5050779;28;20041;-68
2023/10/25 04:58:36;;;;;;;106.70;18.02;;;;;;;;;;5051209;28;20024;-67
2023/10/25 05:01:11;;;;;;;83.00;17.67;;;;;;;;;;5040364;28;20041;-68
2023/10/25 05:03:37;;;;;;;160.40;19.85;;;;;;;;;;5046454;28;20051;-68
2023/10/25 05:06:07;;;;;;;327.77;23.05;;;;;;;;;;5045135;28;20486;-68
2023/10/25 05:08:34;;;;;;;393.90;25.65;;;;;;;;;;5044493;28;20120;-68
2023/10/25 05:11:04;;;;;;;403.77;26.52;;;;;;;;;;5041582;28;20037;-68
2023/10/25 05:13:30;;;;;;;205.43;18.77;;;;;;;;;;5051231;28;20045;-68
2023/10/25 05:15:56;;;;;;;191.15;20.13;;;;;;;;;;5052219;28;20049;-68
2023/10/25 05:18:22;;;;;;;38.90;17.58;;;;;;;;;;5045421;28;20088;-69
2023/10/25 05:20:58;;;;;;;17.20;15.77;;;;;;;;;;5053095;28;20099;-69
2023/10/25 05:23:31;;;;;;;24.80;18.80;;;;;;;;;;5044989;28;20062;-68
2023/10/25 05:25:59;;;;;;;34.75;18.35;;;;;;;;;;5048634;28;20497;-69
2023/10/25 05:28:25;;;;;;;22.05;16.77;;;;;;;;;;5034913;28;20037;-68
2023/10/25 05:30:53;;;;;;;271.30;24.25;;;;;;;;;;5042048;28;20037;-68
2023/10/25 05:33:19;;;;;;;21.60;18.75;;;;;;;;;;5052457;28;20075;-68
2023/10/25 05:35:45;;;;;;;20.15;18.20;;;;;;;;;;5009241;28;1089558;-69
2023/10/25 05:38:11;;;;;;;21.60;19.30;;;;;;;;;;5048275;28;20042;-69
2023/10/25 05:40:37;;;;;;;16.90;15.43;;;;;;;;;;5044642;28;20025;-69
2023/10/25 05:43:07;;;;;;;20.08;17.98;;;;;;;;;;5046412;28;20039;-69
2023/10/25 05:45:32;;;;;;;;;;;;;;;;;;5050877;28;20044;-69
2023/10/25 05:47:58;;;;;;;20.30;18.30;;;;;;;;;;5044862;28;19923;-69
2023/10/25 05:50:24;;;;;;;18.92;17.10;;;;;;;;;;5046446;28;20143;-69
2023/10/25 05:52:50;;;;;;;21.92;18.38;;;;;;;;;;5045110;28;20025;-69
2023/10/25 05:55:16;;;;;;;20.88;18.75;;;;;;;;;;5041360;28;20124;-69
2023/10/25 05:57:42;;;;;;;20.20;18.17;;;;;;;;;;5047706;28;20036;-69
2023/10/25 06:00:08;;;;;;;19.73;17.77;;;;;;;;;;5053632;28;20912;-68
2023/10/25 06:02:34;;;;;;;23.73;19.83;;;;;;;;;;5037450;28;20112;-68
2023/10/25 06:05:00;;;;;;;19.58;17.83;;;;;;;;;;5053821;28;20044;-68
2023/10/25 06:07:27;;;;;;;16.85;15.45;;;;;;;;;;5041988;28;20406;-67
2023/10/25 06:09:55;;;;;;;19.17;17.40;;;;;;;;;;5050498;28;20104;-68
2023/10/25 06:12:22;;;;;;;19.02;17.27;;;;;;;;;;5050712;28;20036;-68
2023/10/25 06:14:48;;;;;;;20.88;18.67;;;;;;;;;;5052779;28;20456;-68
2023/10/25 06:17:14;;;;;;;20.20;18.38;;;;;;;;;;5034616;28;20493;-67
2023/10/25 06:19:39;;;;;;;18.77;16.88;;;;;;;;;;5042543;28;20469;-68
2023/10/25 06:22:05;;;;;;;18.80;17.00;;;;;;;;;;5044329;28;20071;-67
2023/10/25 06:24:30;;;;;;;20.92;18.88;;;;;;;;;;5042673;28;20679;-68
2023/10/25 06:26:56;;;;;;;20.33;18.33;;;;;;;;;;5039296;28;20041;-68
2023/10/25 06:29:22;;;;;;;19.13;17.33;;;;;;;;;;5039994;28;20028;-68
2023/10/25 06:31:50;;;;;;;19.95;17.98;;;;;;;;;;5046093;28;20047;-68
2023/10/25 06:34:18;;;;;;;20.15;18.35;;;;;;;;;;5042723;28;20501;-69
2023/10/25 06:36:44;;;;;;;18.52;16.92;;;;;;;;;;5048177;28;20645;-68
2023/10/25 06:39:10;;;;;;;19.15;17.35;;;;;;;;;;5045968;28;20112;-68
2023/10/25 06:41:36;;;;;;;19.48;17.73;;;;;;;;;;5048103;28;20097;-68
2023/10/25 06:44:05;;;;;;;22.50;20.50;;;;;;;;;;5037202;28;20041;-68
2023/10/25 06:46:31;;;;;;;18.63;16.85;;;;;;;;;;5049302;28;20071;-68
2023/10/25 06:48:58;;;;;;;19.02;17.35;;;;;;;;;;5042953;28;20033;-68
2023/10/25 06:51:25;;;;;;;17.40;15.98;;;;;;;;;;5051579;28;20048;-68
2023/10/25 06:53:51;;;;;;;20.02;18.27;;;;;;;;;;5041485;28;20071;-68
2023/10/25 06:56:17;;;;;;;16.05;14.70;;;;;;;;;;5049053;28;20430;-68
2023/10/25 06:58:43;;;;;;;19.40;17.73;;;;;;;;;;5046460;28;20041;-68
2023/10/25 07:01:11;;;;;;;19.58;17.83;;;;;;;;;;5050647;28;20028;-68
2023/10/25 07:03:44;;;;;;;17.88;16.35;;;;;;;;;;5055990;28;20652;-68
2023/10/25 07:06:11;;;;;;;19.17;17.55;;;;;;;;;;5042063;28;20025;-69
2023/10/25 07:08:37;;;;;;;19.25;17.65;;;;;;;;;;5044354;28;20824;-68
2023/10/25 07:11:03;;;;;;;19.05;17.55;;;;;;;;;;5045994;28;20041;-69
2023/10/25 07:13:32;;;;;;;18.92;17.15;;;;;;;;;;5049925;28;20060;-69
2023/10/25 07:15:59;;;;;;;19.35;17.85;;;;;;;;;;5044821;28;20041;-69
2023/10/25 07:18:24;;;;;;;17.63;16.20;;;;;;;;;;5040593;28;20029;-69
2023/10/25 07:20:50;;;;;;;18.08;16.77;;;;;;;;;;5049654;28;20162;-69
2023/10/25 07:23:16;;;;;;;16.45;15.15;;;;;;;;;;5052754;28;20040;-68
2023/10/25 07:25:45;;;;;;;15.88;14.65;;;;;;;;;;5056023;28;20094;-68
2023/10/25 07:28:11;;;;;;;15.00;13.85;;;;;;;;;;5051947;28;20525;-68
2023/10/25 07:30:37;;;;;;;15.07;14.10;;;;;;;;;;5046563;28;20039;-68
2023/10/25 07:33:02;;;;;;;13.30;12.50;;;;;;;;;;5046337;28;20059;-68
2023/10/25 07:35:28;;;;;;;14.35;13.38;;;;;;;;;;5056056;28;20387;-70
2023/10/25 07:37:54;;;;;;;13.93;13.02;;;;;;;;;;5043705;28;20043;-70
2023/10/25 07:40:20;;;;;;;15.27;14.18;;;;;;;;;;5045799;28;20044;-70
2023/10/25 07:42:46;;;;;;;14.10;13.20;;;;;;;;;;5050095;28;20435;-69
2023/10/25 07:45:12;;;;;;;14.35;13.40;;;;;;;;;;5043889;28;20036;-69
2023/10/25 07:47:38;;;;;;;13.85;12.95;;;;;;;;;;5056674;28;20025;-69
2023/10/25 07:50:05;;;;;;;17.27;15.57;;;;;;;;;;5054644;28;20116;-70
2023/10/25 07:52:31;;;;;;;14.23;13.23;;;;;;;;;;5043870;28;20057;-70
2023/10/25 07:54:57;;;;;;;14.57;13.50;;;;;;;;;;5045657;28;20157;-70
2023/10/25 07:57:25;;;;;;;13.82;12.93;;;;;;;;;;5046471;28;20040;-70
2023/10/25 07:59:51;;;;;;;13.53;12.63;;;;;;;;;;5050637;28;20059;-70
2023/10/25 08:02:16;;;;;;;13.85;12.70;;;;;;;;;;5053071;28;20033;-71
2023/10/25 08:04:42;;;;;;;12.88;12.07;;;;;;;;;;5052920;28;20039;-70
2023/10/25 08:07:10;;;;;;;13.25;12.38;;;;;;;;;;5041391;28;20048;-70
2023/10/25 08:09:36;;;;;;;13.43;12.40;;;;;;;;;;5052040;28;20060;-70
2023/10/25 08:12:02;;;;;;;13.27;12.40;;;;;;;;;;5045827;28;20047;-69
2023/10/25 08:14:27;;;;;;;14.23;13.32;;;;;;;;;;5053349;28;20081;-70
2023/10/25 08:16:53;;;;;;;14.80;13.70;;;;;;;;;;5051511;28;20125;-69
2023/10/25 08:19:19;;;;;;;14.80;13.38;;;;;;;;;;5044896;28;21031;-69
2023/10/25 08:21:45;;;;;;;12.32;11.57;;;;;;;;;;5053388;28;20060;-70
2023/10/25 08:24:11;;;;;;;13.52;12.60;;;;;;;;;;5050303;28;20280;-70
2023/10/25 08:26:39;;;;;;;14.25;13.25;;;;;;;;;;5042868;28;20543;-70
2023/10/25 08:29:08;;;;;;;13.25;12.18;;;;;;;;;;5049182;28;20029;-70
2023/10/25 08:31:34;;;;;;;13.30;12.45;;;;;;;;;;5056996;28;20640;-70
2023/10/25 08:34:00;;;;;;;13.65;12.40;;;;;;;;;;5046421;28;20041;-70
2023/10/25 08:36:30;;;;;;;14.50;13.48;;;;;;;;;;5048736;28;20106;-70
2023/10/25 08:38:56;;;;;;;;;;;;;;;;;;5052864;28;20040;-70
2023/10/25 08:41:25;;;;;;;13.43;12.52;;;;;;;;;;5045150;28;20157;-70
2023/10/25 08:43:52;;;;;;;13.68;12.73;;;;;;;;;;5060704;28;20034;-70
2023/10/25 08:46:19;;;;;;;13.57;12.57;;;;;;;;;;5049606;28;20037;-70
2023/10/25 08:48:45;;;;;;;13.30;12.40;;;;;;;;;;5047371;28;20025;-70
2023/10/25 08:51:13;;;;;;;13.00;12.18;;;;;;;;;;5043348;28;21532;-70
2023/10/25 08:53:41;;;;;;;13.45;12.55;;;;;;;;;;5048546;28;20478;-70
2023/10/25 08:56:07;;;;;;;13.15;12.05;;;;;;;;;;5045732;28;20024;-69
2023/10/25 08:58:33;;;;;;;13.52;12.63;;;;;;;;;;5051390;28;20087;-69
2023/10/25 09:00:58;;;;;;;13.48;12.57;;;;;;;;;;5045309;28;20059;-69
2023/10/25 09:03:30;;;;;;;12.68;11.77;;;;;;;;;;5048491;28;20120;-69
2023/10/25 09:05:56;;;;;;;13.05;12.15;;;;;;;;;;5049211;28;20057;-69
2023/10/25 09:08:24;;;;;;;13.65;12.75;;;;;;;;;;5048316;28;21546;-69
2023/10/25 09:10:57;;;;;;;13.25;12.25;;;;;;;;;;5049043;28;20426;-69
2023/10/25 09:13:23;;;;;;;13.35;12.35;;;;;;;;;;5043434;28;20044;-69
2023/10/25 09:15:49;;;;;;;13.43;12.43;;;;;;;;;;5045654;28;20093;-69
2023/10/25 09:18:15;;;;;;;13.07;12.07;;;;;;;;;;5041255;28;20033;-69
2023/10/25 09:20:40;;;;;;;12.98;12.07;;;;;;;;;;5057080;28;20397;-69
2023/10/25 09:23:12;;;;;;;13.40;12.50;;;;;;;;;;5059942;28;20066;-69
2023/10/25 09:25:38;;;;;;;13.50;12.50;;;;;;;;;;5045842;28;20044;-69
2023/10/25 09:28:05;;;;;;;12.38;11.55;;;;;;;;;;5044452;28;20032;-69
2023/10/25 09:30:30;;;;;;;12.35;11.45;;;;;;;;;;5041697;28;20628;-70
2023/10/25 09:32:57;;;;;;;11.80;11.00;;;;;;;;;;5050023;28;20120;-70
2023/10/25 09:35:23;;;;;;;12.55;11.65;;;;;;;;;;5049832;28;20350;-70
2023/10/25 09:37:49;;;;;;;12.63;11.82;;;;;;;;;;5030511;28;20433;-70
2023/10/25 09:40:15;;;;;;;12.18;11.18;;;;;;;;;;5044538;28;20498;-70
2023/10/25 09:42:49;;;;;;;12.48;11.68;;;;;;;;;;5056331;28;20029;-70
2023/10/25 09:45:22;;;;;;;12.15;11.32;;;;;;;;;;5043785;28;20123;-71
2023/10/25 09:47:53;;;;;;;12.30;11.43;;;;;;;;;;5054760;28;20028;-70
2023/10/25 09:50:31;;;;;;;12.23;11.43;;;;;;;;;;5040862;28;20044;-70
2023/10/25 09:53:04;;;;;;;13.18;12.27;;;;;;;;;;5057191;28;20043;-70
2023/10/25 09:55:32;;;;;;;12.88;12.07;;;;;;;;;;5030087;28;20044;-70
2023/10/25 09:57:59;;;;;;;12.93;12.07;;;;;;;;;;5044334;28;20114;-70
2023/10/25 10:00:27;;;;;;;13.10;12.30;;;;;;;;;;5045467;28;20082;-70
2023/10/25 10:02:55;;;;;;;13.07;12.07;;;;;;;;;;5050095;28;20041;-70
2023/10/25 10:05:34;;;;;;;12.68;11.70;;;;;;;;;;5048360;28;20494;-70
2023/10/25 10:08:17;;;;;;;12.10;11.27;;;;;;;;;;5052189;28;20036;-70
2023/10/25 10:10:52;;;;;;;12.88;11.88;;;;;;;;;;5044545;28;20302;-70
2023/10/25 10:13:19;;;;;;;12.50;11.60;;;;;;;;;;5042598;28;20506;-70
2023/10/25 10:16:09;;;;;;;12.65;11.75;;;;;;;;;;5053575;28;20037;-70
2023/10/25 10:18:41;;;;;;;12.10;11.20;;;;;;;;;;5038180;28;20057;-70
2023/10/25 10:21:09;;;;;;;12.75;11.65;;;;;;;;;;5040377;28;20044;-70
2023/10/25 10:23:35;;;;;;;11.63;10.93;;;;;;;;;;5036254;28;20040;-70
2023/10/25 10:26:02;;;;;;;11.57;10.88;;;;;;;;;;5055275;28;20475;-70
2023/10/25 10:28:43;;;;;;;11.90;11.10;;;;;;;;;;5043026;28;20125;-70
2023/10/25 10:31:11;;;;;;;11.50;10.60;;;;;;;;;;5012822;28;20044;-72
2023/10/25 10:33:48;;;;;;;10.88;10.20;;;;;;;;;;5043615;28;20630;-71
2023/10/25 10:36:25;;;;;;;10.80;10.20;;;;;;;;;;5050707;28;20032;-70
2023/10/25 10:39:10;;;;;;;11.75;10.95;;;;;;;;;;5052302;28;20037;-70
2023/10/25 10:41:36;;;;;;;11.45;10.75;;;;;;;;;;5018831;28;20025;-70
2023/10/25 10:44:01;;;;;;;11.73;10.82;;;;;;;;;;5048458;28;20397;-70
2023/10/25 10:46:30;;;;;;;11.48;10.68;;;;;;;;;;5042211;28;20037;-71
2023/10/25 10:49:01;;;;;;;11.35;10.65;;;;;;;;;;5055197;28;20090;-72
2023/10/25 10:51:30;;;;;;;11.70;10.93;;;;;;;;;;5040661;28;20047;-71
2023/10/25 10:53:55;;;;;;;10.98;10.18;;;;;;;;;;5061286;28;20036;-71
2023/10/25 10:56:21;;;;;;;11.48;10.77;;;;;;;;;;5051869;28;20095;-71
2023/10/25 10:58:46;;;;;;;11.23;10.52;;;;;;;;;;5046438;28;20036;-71
2023/10/25 11:01:13;;;;;;;11.48;10.55;;;;;;;;;;5052415;28;20033;-72
2023/10/25 11:03:39;;;;;;;11.30;10.57;;;;;;;;;;5056524;28;20433;-72
2023/10/25 11:06:05;;;;;;;10.70;10.10;;;;;;;;;;5025642;28;20521;-71
2023/10/25 11:08:35;;;;;;;10.25;9.65;;;;;;;;;;5031770;28;20036;-71
2023/10/25 11:11:00;;;;;;;;;;;;;;;;;;5037713;28;20070;-71
2023/10/25 11:13:28;;;;;;;10.80;10.10;;;;;;;;;;5044789;28;19928;-72
2023/10/25 11:16:08;;;;;;;10.45;9.75;;;;;;;;;;5075903;28;20036;-71
2023/10/25 11:18:35;;;;;;;10.57;9.98;;;;;;;;;;5063622;28;20063;-71
2023/10/25 11:21:01;;;;;;;10.50;9.90;;;;;;;;;;5031000;28;20140;-72
2023/10/25 11:23:27;;;;;;;11.25;10.45;;;;;;;;;;5053735;28;20045;-71
2023/10/25 11:25:54;;;;;;;11.10;10.40;;;;;;;;;;5053785;28;20035;-71
2023/10/25 11:28:20;;;;;;;11.45;10.65;;;;;;;;;;5050354;28;20032;-72
2023/10/25 11:30:49;;;;;;;11.27;10.57;;;;;;;;;;5048805;28;20664;-70
2023/10/25 11:33:18;;;;;;;11.10;10.50;;;;;;;;;;5021692;28;20033;-70
2023/10/25 11:35:44;;;;;;;10.82;10.13;;;;;;;;;;5062289;28;20039;-73
2023/10/25 11:38:11;;;;;;;10.80;10.18;;;;;;;;;;5056088;28;20036;-73
2023/10/25 11:40:39;;;;;;;10.80;10.20;;;;;;;;;;5044764;28;20025;-72
2023/10/25 11:43:06;;;;;;;10.13;9.52;;;;;;;;;;5047718;28;20037;-72
2023/10/25 11:45:32;;;;;;;10.00;9.40;;;;;;;;;;5042567;28;20025;-72
2023/10/25 11:47:58;;;;;;;10.20;9.50;;;;;;;;;;5051302;28;20446;-70
2023/10/25 11:50:24;;;;;;;10.30;9.70;;;;;;;;;;5044392;28;20039;-70
2023/10/25 11:52:49;;;;;;;10.48;9.88;;;;;;;;;;5032535;28;20036;-71
2023/10/25 11:55:15;;;;;;;9.98;9.25;;;;;;;;;;5049554;28;20650;-70
2023/10/25 11:57:42;;;;;;;10.55;9.95;;;;;;;;;;5051490;28;20033;-70
2023/10/25 12:00:11;;;;;;;10.57;9.98;;;;;;;;;;5053853;28;20047;-71
2023/10/25 12:02:39;;;;;;;10.75;10.13;;;;;;;;;;5053397;28;20060;-70
2023/10/25 12:05:05;;;;;;;10.60;9.70;;;;;;;;;;5052096;28;20121;-71
2023/10/25 12:07:31;;;;;;;10.27;9.65;;;;;;;;;;5048987;28;20174;-71
2023/10/25 12:09:57;;;;;;;10.20;9.50;;;;;;;;;;5058691;28;20028;-71
2023/10/25 12:12:23;;;;;;;9.77;9.20;;;;;;;;;;5051851;28;20036;-70
2023/10/25 12:14:49;;;;;;;9.65;9.15;;;;;;;;;;5047994;28;20032;-71
2023/10/25 12:17:15;;;;;;;9.63;9.02;;;;;;;;;;5052470;28;20033;-71
2023/10/25 12:19:41;;;;;;;10.00;9.40;;;;;;;;;;5044849;28;20043;-70
2023/10/25 12:22:09;;;;;;;10.32;9.63;;;;;;;;;;5052850;28;20028;-70
2023/10/25 12:24:36;;;;;;;10.60;9.82;;;;;;;;;;5050266;28;20036;-70
2023/10/25 12:27:03;;;;;;;10.65;9.95;;;;;;;;;;5057120;28;20060;-70
2023/10/25 12:29:29;;;;;;;10.68;10.05;;;;;;;;;;5053575;28;20044;-70
2023/10/25 12:31:55;;;;;;;10.27;9.68;;;;;;;;;;5060934;28;20059;-70
2023/10/25 12:34:21;;;;;;;9.75;9.23;;;;;;;;;;5052642;28;20040;-70
2023/10/25 12:36:46;;;;;;;10.48;9.88;;;;;;;;;;5052190;28;20028;-70
2023/10/25 12:39:13;;;;;;;10.32;9.52;;;;;;;;;;5047597;28;20063;-70
2023/10/25 12:41:39;;;;;;;10.10;9.50;;;;;;;;;;5032278;28;20537;-70
2023/10/25 12:44:08;;;;;;;10.88;10.18;;;;;;;;;;5048168;28;20476;-70
2023/10/25 12:46:34;;;;;;;10.05;9.45;;;;;;;;;;5047731;28;20537;-70
2023/10/25 12:49:00;;;;;;;10.20;9.60;;;;;;;;;;5051368;28;20669;-72
2023/10/25 12:51:26;;;;;;;9.85;9.27;;;;;;;;;;5032053;28;20097;-69
2023/10/25 12:53:51;;;;;;;10.60;9.90;;;;;;;;;;5050417;28;20573;-72
2023/10/25 12:56:17;;;;;;;10.52;9.82;;;;;;;;;;5046812;28;20396;-72
2023/10/25 12:58:44;;;;;;;10.60;10.00;;;;;;;;;;5044571;28;20032;-69
2023/10/25 13:01:10;;;;;;;11.20;10.40;;;;;;;;;;5055909;28;20046;-71
2023/10/25 13:03:35;;;;;;;11.38;10.48;;;;;;;;;;5045134;28;20029;-70
2023/10/25 13:06:03;;;;;;;11.15;10.43;;;;;;;;;;5053267;28;20428;-70
2023/10/25 13:08:29;;;;;;;10.60;10.00;;;;;;;;;;5047773;28;20040;-70
2023/10/25 13:10:55;;;;;;;10.70;10.10;;;;;;;;;;5046542;28;20048;-72
2023/10/25 13:13:21;;;;;;;10.95;10.25;;;;;;;;;;5032221;28;20610;-70
2023/10/25 13:15:46;;;;;;;10.45;9.85;;;;;;;;;;5022506;28;20082;-72
2023/10/25 13:18:14;;;;;;;12.85;11.70;;;;;;;;;;5045240;28;20045;-71
2023/10/25 13:20:40;;;;;;;11.85;9.90;;;;;;;;;;5049764;28;20617;-71
2023/10/25 13:23:06;;;;;;;10.27;9.63;;;;;;;;;;5052268;28;20044;-71
2023/10/25 13:25:31;;;;;;;16.38;12.63;;;;;;;;;;5037957;28;20036;-71
2023/10/25 13:27:57;;;;;;;12.13;11.00;;;;;;;;;;5051890;28;20110;-71
2023/10/25 13:30:23;;;;;;;10.25;9.60;;;;;;;;;;5048893;28;20371;-72
2023/10/25 13:32:48;;;;;;;10.02;9.32;;;;;;;;;;5051138;28;20039;-71
2023/10/25 13:35:14;;;;;;;10.98;10.20;;;;;;;;;;5041677;28;20036;-71
2023/10/25 13:37:40;;;;;;;9.70;8.90;;;;;;;;;;5052988;28;20150;-71
2023/10/25 13:40:07;;;;;;;9.38;8.77;;;;;;;;;;5047947;28;20052;-71
2023/10/25 13:42:32;;;;;;;9.55;8.95;;;;;;;;;;5050341;28;20036;-71
2023/10/25 13:44:58;;;;;;;9.68;8.98;;;;;;;;;;5049294;28;20033;-71
2023/10/25 13:47:23;;;;;;;9.10;8.60;;;;;;;;;;5049947;28;20482;-71
2023/10/25 13:49:50;;;;;;;9.30;8.80;;;;;;;;;;5036431;28;20036;-70
2023/10/25 13:52:15;;;;;;;9.77;9.07;;;;;;;;;;5046651;28;20029;-71
2023/10/25 13:54:41;;;;;;;9.73;9.02;;;;;;;;;;5053764;28;20060;-71
2023/10/25 13:57:06;;;;;;;9.82;9.23;;;;;;;;;;5042078;28;20120;-71
2023/10/25 13:59:32;;;;;;;9.63;8.93;;;;;;;;;;5050833;28;20072;-70
2023/10/25 14:01:58;;;;;;;9.43;8.93;;;;;;;;;;5056039;28;20032;-70
2023/10/25 14:04:23;;;;;;;9.25;8.70;;;;;;;;;;5023985;28;20198;-70
2023/10/25 14:06:50;;;;;;;9.20;8.70;;;;;;;;;;5049236;28;20055;-70
2023/10/25 14:09:16;;;;;;;9.68;9.05;;;;;;;;;;5044126;28;20394;-70
2023/10/25 14:11:46;;;;;;;9.68;8.77;;;;;;;;;;5028096;28;20478;-70
2023/10/25 14:14:13;;;;;;;9.43;8.82;;;;;;;;;;5046270;28;20064;-70
2023/10/25 14:16:39;;;;;;;9.90;9.30;;;;;;;;;;5041607;28;20043;-70